INFORMACIÓN METAR y TAF
METAR FOR LETL
ADDS - METARS form results

(2140 UTC 01 October 2022)
Data provider http://aviationweather.gov/metar/data/
 
METAR text: LETL 012130Z AUTO VRB01KT CAVOK 12/05 Q1030
Conditions at: LETL (TERUEL , ES) observed 2130 UTC 01 October 2022
Temperature: 12.0°C (54°F)
Dewpoint: 5.0°C (41°F) [RH = 62%]
Pressure (altimeter): 30.41 inches Hg (1030.0 mb)
Winds: variable direction winds at 1 MPH (1 knots; 0.5 m/s)
Visibility: 6 or more miles (10+ km)
Ceiling: ceiling and visibility are OK
Clouds: unknown
Weather: no significant weather observed at this time

METAR text: LETL 012100Z AUTO VRB01KT CAVOK 14/05 Q1029
Conditions at: LETL (TERUEL , ES) observed 2100 UTC 01 October 2022
Temperature: 14.0°C (57°F)
Dewpoint: 5.0°C (41°F) [RH = 55%]
Pressure (altimeter): 30.38 inches Hg (1029.0 mb)
Winds: variable direction winds at 1 MPH (1 knots; 0.5 m/s)
Visibility: 6 or more miles (10+ km)
Ceiling: ceiling and visibility are OK
Clouds: unknown
Weather: no significant weather observed at this time

 MAPA DE AEROPUERTO

 INFORMACIÓN DE PISTA

 FRECUANCIAS DEL AEROPUERTO

 RADIO AYUDAS DEL AEROPUERTO



Powered by Virtual Airlines Manager [v2.6.2]